Windsor, SC (29856)

6:42 PM EDT on September 01, 2015 (GMT -0400)
Old Tory Trail Aiken | | Change Station
CLOSE
Current Station
Personal Weather Station
Location: Aiken, SC
Elevation: 410 ft
Nearby Weather Stations

Elev 410 ft 33.55 °N, 81.56 °W | Updated 2 minutes ago

Clear
Clear
88.4 °F
Feels Like 94 °F
N
0.0
Wind Variable Wind from South
Gusts 0.0 mph

Today
High -- | Low -- °F
--% Chance of Precip.
Yesterday
High -- | Low -- °F
Precip. -- in
7:00 AM 7:51 PM
Waning Gibbous, 86% visible
Pressure 30.10 in
Visibility 10.0 miles
Clouds Scattered Clouds 7500 ft
Heat Index 94 °F
Dew Point 70 °F
Humidity 55%
Rainfall 0.00 in
Snow Depth Not available.
UV 1 out of 12
Pollen 8.10 out of 12
Air Quality Not available.
Flu Activity Not available.
METAR KAIK 012235Z AUTO 19004KT 10SM SCT075 29/17 A3010 RMK AO2 LTG DSNT SE
Pressure 30.10 in
Visibility 10.0 miles
Clouds Scattered Clouds 7500 ft
Heat Index 94 °F
Dew Point 70 °F
Humidity 55%
Rainfall 0.00 in
Snow Depth Not available.
UV 1 out of 12
Pollen 8.10 out of 12
Air Quality Not available.
Flu Activity Not available.
METAR KAIK 012235Z AUTO 19004KT 10SM SCT075 29/17 A3010 RMK AO2 LTG DSNT SE

10-Day Weather Forecast

×

Almanac

Astronomy

Sep. 01, 2015 Rise Set
Actual Time
Civil Twilight
Nautical Twilight
Astronomical Twilight
Moon
Length of Visible Light
Length of Day
Tomorrow will be .
, % of the Moon is Illuminated

Today's Extremes

State Highs State Lows

Community

WunderPhotos

Upload Photos

1,851,634 photos uploaded!

WunderBlogs® & News

Nearby

Air Quality

  Air Quality AQ Index Pollutant
Not available.

Snow Depth

Station Depth Elevation

Earthquake Activity

City Distance Mag. Time & Date
Minimum magnitude displayed is 2.5.

Coastal Water Temperatures

Place Temperature

Stations

Nearby Weather Stations

Station Location Temp. Windchill Dew Point Humidity Wind Precip. Elev Updated Type